Terminal Aerodrome Forecast
Issued by NWS

Home | Current Version | Previous Version | Text Only | Print | Product List | Glossary Off
Versions: 1 2 3 4 5 6 7 8 9 10 11 12 13 14 15 16 17 18 19 20 21 22 23 24 25 26 27 28 29

000
FTUS43 KPAH 012100 AAA
TAFOWB
TAF AMD
KOWB 012116Z 0121/0218 20010KT 3SM -RA BR OVC004
      TEMPO 0121/0124 1SM -RA BR
     FM020000 20010KT 4SM BR OVC007
     FM020200 27012G20KT 5SM BR OVC012
     FM020500 30015G25KT P6SM OVC015=

USA.gov is the U.S. government's official web portal to all federal, state and local government web resources and services.